Pagrindinis puslapis
METAR-TAF:

METAR-TAF

Oro uostai :

Seldovia, Aliaska, Jungtinės Amerikos Valstijos

platuma: 59-27N, ilguma: 151-42W, Aukštis: 9 m

Dabartinis oras

Ataskaita buvo paskelbta 1 valandą ir 10 minutes, ne 20:53 UTC
Vėjas 3 kt nuo kintamojo kryptimis
Temperatūra 10°C
Drėgmė 66%
Slėgis 998 hPa
Matomumas: 16.1 km
Apsiniaukę ne aukštis 4200 ft

METAR: PASO 212053Z AUTO VRB03KT 10SM OVC042 10/04 A2946 RMK AO2 SLP977 60000 T01000039 51025 TSNO

Laikas: 14:03 (22:03 UTC)


TAF: trūkstamas

Orai ataskaitas ir orų prognozės (METAR, TAF).

turimą stotys yra geltonos ir raudonos taškus žemėlapyje.

Perkelti pele per norėdami pamatyti stoties vardą.

Tada spustelėkite, norėdami matyti oro stebėjimo ir prognozės.

Norėdami pakeisti žemėlapį: spustelėkite ant žalios mygtukų su juodo kryžiaus žemyn,; žalią mygtuką su brūkšneliu, jei norite nutolinti; arba žalių rodyklių gretimoms žemėlapius.


METAR-TAF: